Time;durP1;ratioP1;P1;durP2;ratioP2;P2;SDS_P1;SDS_P2;PMS_P1;PMS_P2;Temp;Humidity;BMP_temperature;BMP_pressure;BME280_temperature;BME280_humidity;BME280_pressure;Samples;Min_cycle;Max_cycle;Signal;HPM_P1;HPM_P2
2020/12/14 00:02:26;;;;;;;19.25;6.22;;;7.00;99.90;;;;;;4944597;28;20124;-89
2020/12/14 00:04:52;;;;;;;15.15;6.28;;;7.00;99.90;;;;;;4928755;29;20020;-85
2020/12/14 00:07:19;;;;;;;14.55;6.70;;;7.00;99.90;;;;;;4943501;28;20015;-93
2020/12/14 00:09:45;;;;;;;13.93;6.63;;;7.00;99.90;;;;;;4944182;29;20039;-86
2020/12/14 00:12:11;;;;;;;15.80;6.38;;;7.00;99.90;;;;;;4944160;29;20031;-85
2020/12/14 00:14:37;;;;;;;16.35;6.35;;;7.00;99.90;;;;;;4943613;28;20032;-85
2020/12/14 00:17:02;;;;;;;20.80;6.60;;;7.00;99.90;;;;;;4944527;28;20055;-88
2020/12/14 00:19:28;;;;;;;15.73;5.65;;;7.00;99.90;;;;;;4944135;28;20040;-85
2020/12/14 00:21:54;;;;;;;16.33;7.25;;;7.00;99.90;;;;;;4912782;28;20023;-83
2020/12/14 00:24:21;;;;;;;12.15;5.70;;;7.00;99.90;;;;;;4912309;29;20051;-93
2020/12/14 00:26:48;;;;;;;13.88;5.85;;;7.00;99.90;;;;;;4928367;29;20047;-85
2020/12/14 00:29:13;;;;;;;20.85;6.60;;;7.10;99.90;;;;;;4944249;28;20012;-83
2020/12/14 00:31:39;;;;;;;17.52;7.13;;;7.10;99.90;;;;;;4944159;29;20023;-84
2020/12/14 00:34:05;;;;;;;19.30;6.97;;;7.10;99.90;;;;;;4944165;29;20073;-85
2020/12/14 00:36:30;;;;;;;15.52;5.80;;;7.10;99.90;;;;;;4927591;29;20040;-92
2020/12/14 00:38:56;;;;;;;17.17;6.28;;;7.10;99.90;;;;;;4943564;29;20036;-84
2020/12/14 00:41:22;;;;;;;15.02;5.93;;;7.10;99.90;;;;;;4960162;28;20055;-85
2020/12/14 00:43:48;;;;;;;18.42;6.82;;;7.20;99.90;;;;;;4943350;29;20040;-84
2020/12/14 00:46:15;;;;;;;16.48;5.65;;;7.10;99.90;;;;;;4928005;29;20039;-85
2020/12/14 00:48:41;;;;;;;15.15;5.68;;;7.20;99.90;;;;;;4935202;29;20084;-85
2020/12/14 00:51:07;;;;;;;11.07;5.40;;;7.20;99.90;;;;;;4885427;29;20371;-85
2020/12/14 00:53:33;;;;;;;15.35;5.25;;;7.20;99.90;;;;;;4885247;29;20028;-86
2020/12/14 00:56:06;;;;;;;19.83;5.93;;;7.20;99.90;;;;;;4884844;29;20036;-85
2020/12/14 00:58:33;;;;;;;12.57;4.93;;;7.20;99.90;;;;;;4900420;29;20039;-85
2020/12/14 01:00:59;;;;;;;10.50;4.82;;;7.20;99.90;;;;;;4900612;29;20043;-85
2020/12/14 01:03:25;;;;;;;20.13;5.40;;;7.20;99.90;;;;;;4915905;29;20036;-83
2020/12/14 01:05:51;;;;;;;10.85;5.22;;;7.20;99.90;;;;;;4917617;29;20031;-86
2020/12/14 01:08:18;;;;;;;10.93;4.57;;;7.30;99.90;;;;;;4900507;29;20080;-85
2020/12/14 01:10:44;;;;;;;15.20;5.47;;;7.20;99.90;;;;;;4915884;29;20115;-85
2020/12/14 01:13:10;;;;;;;16.05;5.55;;;7.20;99.90;;;;;;4916018;29;20036;-83
2020/12/14 01:15:36;;;;;;;11.98;4.85;;;7.30;99.90;;;;;;4915643;29;20088;-84
2020/12/14 01:18:01;;;;;;;10.63;5.25;;;7.30;99.90;;;;;;4900071;29;20394;-85
2020/12/14 01:20:27;;;;;;;12.65;5.13;;;7.30;99.90;;;;;;4915798;29;20036;-84
2020/12/14 01:22:53;;;;;;;12.00;4.95;;;7.30;99.90;;;;;;4900212;29;20071;-85
2020/12/14 01:25:18;;;;;;;10.80;5.35;;;7.30;99.90;;;;;;4900257;29;20032;-85
2020/12/14 01:27:44;;;;;;;13.00;5.13;;;7.40;99.90;;;;;;4915571;29;20032;-85
2020/12/14 01:30:10;;;;;;;10.60;5.25;;;7.40;99.90;;;;;;4915944;29;20116;-83
2020/12/14 01:32:35;;;;;;;15.98;4.75;;;7.40;99.90;;;;;;4884107;29;20036;-83
2020/12/14 01:35:01;;;;;;;10.38;4.72;;;7.30;99.90;;;;;;4915615;29;20111;-85
2020/12/14 01:37:26;;;;;;;12.15;5.10;;;7.30;99.90;;;;;;4884589;29;20463;-84
2020/12/14 01:39:52;;;;;;;11.73;5.40;;;7.30;99.90;;;;;;4915827;29;20036;-84
2020/12/14 01:42:22;;;;;;;7.75;4.43;;;7.40;99.90;;;;;;4900421;29;20036;-86
2020/12/14 01:44:51;;;;;;;12.13;5.00;;;7.40;99.90;;;;;;4917003;29;20471;-84
2020/12/14 01:47:37;;;;;;;9.85;4.53;;;7.40;99.90;;;;;;4918393;29;20056;-83
2020/12/14 01:50:04;;;;;;;14.35;5.32;;;7.40;99.90;;;;;;4919871;29;20064;-85
2020/12/14 01:52:31;;;;;;;9.77;4.72;;;7.40;99.90;;;;;;4920589;29;20031;-83
2020/12/14 01:55:00;;;;;;;10.82;4.97;;;7.50;99.90;;;;;;4904209;29;20039;-85
2020/12/14 01:57:26;;;;;;;9.98;5.20;;;7.40;99.90;;;;;;4939157;29;20032;-84
2020/12/14 01:59:55;;;;;;;15.73;6.18;;;7.40;99.90;;;;;;4930776;29;20031;-83
2020/12/14 02:02:21;;;;;;;10.68;4.60;;;7.40;99.90;;;;;;4920859;29;20039;-84
2020/12/14 02:04:47;;;;;;;15.38;6.15;;;7.50;99.90;;;;;;4919456;29;20036;-84
2020/12/14 02:07:12;;;;;;;11.23;6.10;;;7.50;99.90;;;;;;4903580;29;20028;-85
2020/12/14 02:09:38;;;;;;;11.75;6.53;;;7.50;99.90;;;;;;4919056;29;20028;-83
2020/12/14 02:12:04;;;;;;;15.93;7.45;;;7.50;99.90;;;;;;4887318;29;20028;-84
2020/12/14 02:14:29;;;;;;;10.35;5.47;;;7.50;99.90;;;;;;4918889;29;20463;-86
2020/12/14 02:16:55;;;;;;;19.90;6.97;;;7.50;99.90;;;;;;4887708;29;20032;-83
2020/12/14 02:19:21;;;;;;;13.07;6.00;;;7.50;99.90;;;;;;4919130;29;20507;-84
2020/12/14 02:21:49;;;;;;;14.60;6.78;;;7.50;99.90;;;;;;4903403;29;20534;-84
2020/12/14 02:24:18;;;;;;;14.15;6.80;;;7.50;99.90;;;;;;4918453;29;20036;-83
2020/12/14 02:26:48;;;;;;;10.15;6.80;;;7.50;99.90;;;;;;4902916;29;20084;-84
2020/12/14 02:29:15;;;;;;;11.20;7.32;;;7.50;99.90;;;;;;4906106;29;20036;-85
2020/12/14 02:31:41;;;;;;;14.23;7.70;;;7.50;99.90;;;;;;4903231;29;20028;-84
2020/12/14 02:34:07;;;;;;;13.88;6.95;;;7.50;99.90;;;;;;4918195;29;20455;-83
2020/12/14 02:36:33;;;;;;;12.77;6.68;;;7.50;99.90;;;;;;4918575;29;20064;-84
2020/12/14 02:38:59;;;;;;;12.43;6.90;;;7.60;99.90;;;;;;4918794;29;20063;-84
2020/12/14 02:41:24;;;;;;;11.45;6.93;;;7.60;99.90;;;;;;4902935;29;20040;-84
2020/12/14 02:43:50;;;;;;;10.75;6.32;;;7.70;99.90;;;;;;4903073;29;20037;-86
2020/12/14 02:46:16;;;;;;;9.15;6.35;;;7.70;99.90;;;;;;4886941;29;20032;-84
2020/12/14 02:48:41;;;;;;;13.02;6.78;;;7.60;99.90;;;;;;4903003;29;20071;-85
2020/12/14 02:51:07;;;;;;;10.90;6.45;;;7.60;99.90;;;;;;4902534;29;20119;-84
2020/12/14 02:53:32;;;;;;;10.95;6.30;;;7.60;99.90;;;;;;4917827;29;20111;-85
2020/12/14 02:55:58;;;;;;;9.85;6.88;;;7.70;99.90;;;;;;4918397;29;20541;-83
2020/12/14 02:58:24;;;;;;;11.45;7.13;;;7.60;99.90;;;;;;4918035;29;20502;-85
2020/12/14 03:00:49;;;;;;;14.90;7.55;;;7.60;99.90;;;;;;4901848;29;20118;-84
2020/12/14 03:03:15;;;;;;;10.48;7.05;;;7.70;99.90;;;;;;4901890;29;20044;-84
2020/12/14 03:05:41;;;;;;;11.43;7.65;;;7.70;99.90;;;;;;4919316;29;20382;-83
2020/12/14 03:08:06;;;;;;;13.73;8.18;;;7.60;99.90;;;;;;4901994;29;20123;-84
2020/12/14 03:10:32;;;;;;;12.13;7.82;;;7.70;99.90;;;;;;4902538;29;20036;-83
2020/12/14 03:12:58;;;;;;;14.93;9.25;;;7.70;99.90;;;;;;4886441;29;20032;-84
2020/12/14 03:15:23;;;;;;;19.73;8.63;;;7.60;99.90;;;;;;4918087;29;20024;-85
2020/12/14 03:17:49;;;;;;;12.13;8.48;;;7.70;99.90;;;;;;4902463;29;20032;-84
2020/12/14 03:20:15;;;;;;;15.20;9.07;;;7.70;99.90;;;;;;4918665;29;20036;-85
2020/12/14 03:22:40;;;;;;;13.32;9.18;;;7.70;99.90;;;;;;4919104;29;20063;-84
2020/12/14 03:25:06;;;;;;;13.00;8.10;;;7.70;99.90;;;;;;4918313;29;20063;-84
2020/12/14 03:27:31;;;;;;;14.18;9.32;;;7.70;99.90;;;;;;4901729;29;20118;-84
2020/12/14 03:29:57;;;;;;;12.75;9.90;;;7.70;99.90;;;;;;4917683;29;20427;-84
2020/12/14 03:32:23;;;;;;;16.00;10.07;;;7.70;99.90;;;;;;4901649;29;20057;-85
2020/12/14 03:34:48;;;;;;;11.82;9.30;;;7.70;99.90;;;;;;4885740;29;20048;-85
2020/12/14 03:37:14;;;;;;;18.42;12.20;;;7.70;99.90;;;;;;4917305;29;20038;-85
2020/12/14 03:39:40;;;;;;;16.08;10.55;;;7.70;99.90;;;;;;4901449;29;20386;-86
2020/12/14 03:42:05;;;;;;;16.50;12.02;;;7.80;99.90;;;;;;4918791;29;20406;-85
2020/12/14 03:44:31;;;;;;;16.52;10.15;;;7.80;99.90;;;;;;4917737;29;20502;-86
2020/12/14 03:46:56;;;;;;;14.32;10.55;;;7.80;99.90;;;;;;4901912;29;20032;-85
2020/12/14 03:49:22;;;;;;;17.52;12.60;;;7.80;99.90;;;;;;4900998;29;20056;-84
2020/12/14 03:51:48;;;;;;;16.70;12.35;;;7.80;99.90;;;;;;4901299;29;20040;-84
2020/12/14 03:54:13;;;;;;;14.43;11.25;;;7.70;99.90;;;;;;4901495;29;20038;-84
2020/12/14 03:56:39;;;;;;;18.08;13.20;;;7.80;99.90;;;;;;4901304;29;20386;-85
2020/12/14 03:59:04;;;;;;;14.25;11.63;;;7.80;99.90;;;;;;4901286;29;20108;-84
2020/12/14 04:01:30;;;;;;;15.35;11.80;;;7.80;99.90;;;;;;4901810;29;20424;-84
2020/12/14 04:03:56;;;;;;;17.55;13.85;;;7.90;99.90;;;;;;4885459;29;20495;-85
2020/12/14 04:06:26;;;;;;;15.57;12.13;;;7.80;99.90;;;;;;4918260;29;20111;-83
2020/12/14 04:08:53;;;;;;;16.38;12.95;;;7.80;99.90;;;;;;4916511;29;20024;-84
2020/12/14 04:11:19;;;;;;;13.00;11.50;;;7.80;99.90;;;;;;4901290;29;20046;-84
2020/12/14 04:13:46;;;;;;;14.40;12.18;;;7.90;99.90;;;;;;4919574;29;20032;-85
2020/12/14 04:16:12;;;;;;;13.52;10.77;;;7.90;99.90;;;;;;4901267;29;20504;-84
2020/12/14 04:18:38;;;;;;;11.60;9.25;;;7.90;99.90;;;;;;4910449;29;20032;-84
2020/12/14 04:21:04;;;;;;;11.65;9.07;;;7.90;99.90;;;;;;4923122;29;20086;-84
2020/12/14 04:23:30;;;;;;;11.18;8.45;;;7.90;99.90;;;;;;4918006;29;20542;-84
2020/12/14 04:25:56;;;;;;;9.90;8.95;;;7.80;99.90;;;;;;4901552;29;20119;-84
2020/12/14 04:28:22;;;;;;;12.05;9.95;;;7.80;99.90;;;;;;4901144;29;20024;-83
2020/12/14 04:30:48;;;;;;;9.95;8.60;;;7.90;99.90;;;;;;4901168;29;20406;-85
2020/12/14 04:33:13;;;;;;;11.63;9.77;;;7.90;99.90;;;;;;4919456;29;20035;-82
2020/12/14 04:35:39;;;;;;;12.10;10.57;;;7.90;99.90;;;;;;4899047;29;20036;-84
2020/12/14 04:38:04;;;;;;;12.25;10.63;;;7.90;99.90;;;;;;4917804;29;20036;-84
2020/12/14 04:40:31;;;;;;;12.77;11.48;;;8.00;99.90;;;;;;4917252;29;20043;-84
2020/12/14 04:43:00;;;;;;;14.85;12.80;;;8.00;99.90;;;;;;4916284;29;20032;-85
2020/12/14 04:45:28;;;;;;;15.15;13.52;;;8.00;99.90;;;;;;4916394;29;20024;-84
2020/12/14 04:47:58;;;;;;;15.88;13.70;;;8.00;99.90;;;;;;4901083;29;20114;-84
2020/12/14 04:50:25;;;;;;;18.33;15.73;;;8.10;99.90;;;;;;4932155;29;20562;-85
2020/12/14 04:52:51;;;;;;;19.25;16.05;;;8.10;99.90;;;;;;4919731;29;20474;-84
2020/12/14 04:55:26;;;;;;;20.83;16.33;;;8.10;99.90;;;;;;4888129;29;20127;-83
2020/12/14 04:57:52;;;;;;;;;;;8.10;99.90;;;;;;4903906;29;20478;-83
2020/12/14 05:00:19;;;;;;;21.90;17.15;;;8.20;99.90;;;;;;4918946;29;19922;-84
2020/12/14 05:02:44;;;;;;;20.60;17.65;;;8.10;99.90;;;;;;4919081;29;20050;-92
2020/12/14 05:05:14;;;;;;;24.15;19.00;;;8.00;99.90;;;;;;4888381;29;20119;-83
2020/12/14 05:07:44;;;;;;;27.75;21.67;;;8.10;99.90;;;;;;4919053;29;20028;-84
2020/12/14 05:10:13;;;;;;;23.65;19.38;;;8.10;99.90;;;;;;4936764;29;20047;-85
2020/12/14 05:12:41;;;;;;;20.98;18.60;;;8.20;99.90;;;;;;4919046;29;20118;-83
2020/12/14 05:15:30;;;;;;;24.23;19.08;;;8.20;99.90;;;;;;4936396;29;20031;-83
2020/12/14 05:18:13;;;;;;;24.92;19.63;;;8.20;99.90;;;;;;4919342;29;20052;-84
2020/12/14 05:20:55;;;;;;;27.08;21.58;;;8.20;99.90;;;;;;4919592;29;20051;-84
2020/12/14 05:23:22;;;;;;;22.10;19.50;;;8.20;99.90;;;;;;4922039;29;20538;-84
2020/12/14 05:25:47;;;;;;;28.35;22.08;;;8.20;99.90;;;;;;4907631;29;20473;-86
2020/12/14 05:28:16;;;;;;;25.65;21.65;;;8.30;99.90;;;;;;4924301;29;20068;-84
2020/12/14 05:30:50;;;;;;;27.70;22.63;;;8.30;99.90;;;;;;4940804;29;20030;-84
2020/12/14 05:33:21;;;;;;;26.10;21.42;;;8.30;99.90;;;;;;4924046;29;20114;-85
2020/12/14 05:35:47;;;;;;;32.80;22.85;;;8.30;99.90;;;;;;4923745;29;20031;-85
2020/12/14 05:38:15;;;;;;;27.95;22.48;;;8.30;99.90;;;;;;4940795;29;20066;-85
2020/12/14 05:40:43;;;;;;;25.30;21.65;;;8.40;99.90;;;;;;4940806;29;20027;-85
2020/12/14 05:43:10;;;;;;;32.72;24.60;;;8.40;99.90;;;;;;4909026;29;20036;-84
2020/12/14 05:45:36;;;;;;;30.73;25.33;;;8.40;99.90;;;;;;4927910;29;20042;-85
2020/12/14 05:48:02;;;;;;;38.40;27.35;;;8.40;99.90;;;;;;4926858;29;20035;-84
2020/12/14 05:50:28;;;;;;;31.35;26.05;;;8.40;99.90;;;;;;4935316;29;20058;-83
2020/12/14 05:52:54;;;;;;;31.65;24.95;;;8.40;99.90;;;;;;4926166;29;20107;-85
2020/12/14 05:55:22;;;;;;;34.47;27.00;;;8.50;99.90;;;;;;4910865;29;20056;-83
2020/12/14 05:57:51;;;;;;;35.22;29.40;;;8.50;99.90;;;;;;4959605;29;20020;-84
2020/12/14 06:00:18;;;;;;;36.85;29.23;;;8.50;99.90;;;;;;4945999;29;20054;-87
2020/12/14 06:02:44;;;;;;;38.67;31.35;;;8.50;99.90;;;;;;4930849;28;20023;-83
2020/12/14 06:05:10;;;;;;;36.20;29.60;;;8.60;99.90;;;;;;4962745;28;20026;-87
2020/12/14 06:07:38;;;;;;;36.78;29.30;;;8.60;99.90;;;;;;4946195;29;20015;-85
2020/12/14 06:10:05;;;;;;;36.95;30.27;;;8.60;99.90;;;;;;4962835;28;20027;-85
2020/12/14 06:12:32;;;;;;;41.70;32.45;;;8.60;99.90;;;;;;4946189;28;20039;-84
2020/12/14 06:15:04;;;;;;;43.15;32.97;;;8.70;99.90;;;;;;4930260;29;20035;-87
2020/12/14 06:17:29;;;;;;;43.05;31.52;;;8.70;99.90;;;;;;4930759;29;20020;-84
2020/12/14 06:20:12;;;;;;;46.47;33.90;;;8.70;99.90;;;;;;4930164;28;20039;-94
2020/12/14 06:22:42;;;;;;;44.42;33.75;;;8.70;99.90;;;;;;4962684;28;20023;-86
2020/12/14 06:25:08;;;;;;;44.97;34.13;;;8.80;99.90;;;;;;4945785;29;20012;-83
2020/12/14 06:27:34;;;;;;;48.05;33.55;;;8.70;99.90;;;;;;4945947;28;20047;-84
2020/12/14 06:29:59;;;;;;;43.38;33.97;;;8.80;99.90;;;;;;4930396;28;20023;-85
2020/12/14 06:32:53;;;;;;;43.05;33.10;;;8.80;99.90;;;;;;4996013;23;20133;-86
2020/12/14 06:35:43;;;;;;;42.65;32.50;;;8.80;99.90;;;;;;4908412;29;20028;-83
2020/12/14 06:38:09;;;;;;;48.10;35.45;;;8.80;99.90;;;;;;4924203;29;20076;-85
2020/12/14 06:40:54;;;;;;;45.63;34.03;;;8.90;99.90;;;;;;4923414;29;20055;-83
2020/12/14 06:43:33;;;;;;;;;;;8.90;99.90;;;;;;4923846;29;20096;-85
2020/12/14 06:46:01;;;;;;;44.90;33.78;;;8.90;99.90;;;;;;4923211;29;19895;-92
2020/12/14 06:48:37;;;;;;;43.50;33.13;;;8.90;99.90;;;;;;4923744;29;20025;-84
2020/12/14 06:51:06;;;;;;;44.03;34.85;;;9.00;99.90;;;;;;4922602;29;20061;-85
2020/12/14 06:53:50;;;;;;;42.95;33.22;;;9.00;99.90;;;;;;4893084;29;20444;-84
2020/12/14 06:56:28;;;;;;;45.55;34.15;;;9.00;99.90;;;;;;4900125;29;20032;-85
2020/12/14 06:58:55;;;;;;;51.65;36.65;;;9.00;99.90;;;;;;4900612;29;20104;-84
2020/12/14 07:01:35;;;;;;;42.67;32.60;;;9.00;99.90;;;;;;4899752;29;20036;-85
2020/12/14 07:04:05;;;;;;;45.95;33.65;;;9.00;99.90;;;;;;4900875;29;20123;-85
2020/12/14 07:06:31;;;;;;;43.55;34.40;;;9.10;99.90;;;;;;4899767;29;20025;-84
2020/12/14 07:08:56;;;;;;;39.65;31.98;;;9.10;99.90;;;;;;4917226;29;20032;-91
2020/12/14 07:11:24;;;;;;;45.30;34.72;;;9.10;99.90;;;;;;4914398;29;20061;-84
2020/12/14 07:13:51;;;;;;;42.47;33.85;;;9.10;99.90;;;;;;4900321;29;20036;-85
2020/12/14 07:16:19;;;;;;;44.17;33.45;;;9.10;99.90;;;;;;4883794;29;20123;-84
2020/12/14 07:18:47;;;;;;;43.70;35.83;;;9.20;99.90;;;;;;4900413;29;20498;-84
2020/12/14 07:21:16;;;;;;;42.50;32.50;;;9.20;99.90;;;;;;4898847;29;20036;-86
2020/12/14 07:23:44;;;;;;;42.22;33.50;;;9.20;99.90;;;;;;4882799;29;20071;-84
2020/12/14 07:26:13;;;;;;;53.10;35.25;;;9.20;99.90;;;;;;4898478;29;20076;-84
2020/12/14 07:28:48;;;;;;;41.30;33.13;;;9.20;99.90;;;;;;4898585;29;20467;-84
2020/12/14 07:31:19;;;;;;;41.53;33.53;;;9.20;99.90;;;;;;4898663;29;20538;-85
2020/12/14 07:33:54;;;;;;;44.13;34.97;;;9.20;99.90;;;;;;4898326;29;20060;-86
2020/12/14 07:36:20;;;;;;;47.78;35.72;;;9.20;99.90;;;;;;4898365;29;20134;-84
2020/12/14 07:39:07;;;;;;;41.15;33.58;;;9.30;99.90;;;;;;4901047;29;20036;-85
2020/12/14 07:41:33;;;;;;;41.45;33.67;;;9.30;99.90;;;;;;4901479;29;20041;-85
2020/12/14 07:44:01;;;;;;;44.50;33.00;;;9.30;99.90;;;;;;4899907;29;20510;-84
2020/12/14 07:46:29;;;;;;;46.63;34.97;;;9.40;99.90;;;;;;4899882;29;20029;-86
2020/12/14 07:48:57;;;;;;;44.90;33.60;;;9.40;99.90;;;;;;4903001;29;20032;-84
2020/12/14 07:51:23;;;;;;;42.80;32.33;;;9.40;99.90;;;;;;4905715;29;20110;-84
2020/12/14 07:53:51;;;;;;;42.35;34.22;;;9.50;99.90;;;;;;4899375;29;20040;-84
2020/12/14 07:56:16;;;;;;;41.08;31.80;;;9.50;99.90;;;;;;4882968;29;20087;-85
2020/12/14 07:58:50;;;;;;;40.78;31.52;;;9.50;99.90;;;;;;4883363;29;20036;-85
2020/12/14 08:01:18;;;;;;;38.80;31.60;;;9.50;99.90;;;;;;4901072;29;20035;-86
2020/12/14 08:03:46;;;;;;;36.95;28.75;;;9.60;99.90;;;;;;4898416;29;20043;-85
2020/12/14 08:06:18;;;;;;;37.25;28.88;;;9.60;99.90;;;;;;4897721;29;20119;-86
2020/12/14 08:08:47;;;;;;;35.72;29.95;;;9.60;99.90;;;;;;4897503;29;20028;-87
2020/12/14 08:11:14;;;;;;;34.28;29.27;;;9.60;99.90;;;;;;4899041;29;20032;-86
2020/12/14 08:13:43;;;;;;;34.33;26.42;;;9.70;99.90;;;;;;4881967;29;20064;-86
2020/12/14 08:16:10;;;;;;;29.27;25.92;;;9.70;99.90;;;;;;4882582;29;20035;-86
2020/12/14 08:18:36;;;;;;;27.75;24.33;;;9.70;99.90;;;;;;4882183;29;20483;-86
2020/12/14 08:21:02;;;;;;;29.25;23.80;;;9.80;99.90;;;;;;4881839;29;20087;-85
2020/12/14 08:23:31;;;;;;;31.00;24.90;;;9.80;99.90;;;;;;4881119;29;20036;-86
2020/12/14 08:25:58;;;;;;;25.27;22.48;;;9.80;99.90;;;;;;4897302;29;20037;-86
2020/12/14 08:28:31;;;;;;;26.33;22.67;;;9.90;99.90;;;;;;4899023;29;20039;-87
2020/12/14 08:30:58;;;;;;;22.45;19.48;;;9.90;99.90;;;;;;4903812;29;20043;-85
2020/12/14 08:33:26;;;;;;;23.75;20.80;;;10.00;99.90;;;;;;4892897;29;20056;-85
2020/12/14 08:35:53;;;;;;;22.45;19.55;;;9.90;99.90;;;;;;4917223;29;20046;-84
2020/12/14 08:38:28;;;;;;;23.48;19.35;;;10.00;99.90;;;;;;4886086;29;20036;-86
2020/12/14 08:40:57;;;;;;;23.20;19.60;;;10.00;99.90;;;;;;4881771;29;20029;-86
2020/12/14 08:43:26;;;;;;;20.15;17.60;;;10.10;99.90;;;;;;4881307;29;20037;-86
2020/12/14 08:46:11;;;;;;;19.60;17.23;;;10.10;99.90;;;;;;4881171;29;20132;-86
2020/12/14 08:48:57;;;;;;;20.55;18.38;;;10.10;99.90;;;;;;4882272;29;20029;-86
2020/12/14 08:51:24;;;;;;;18.55;16.55;;;10.20;99.90;;;;;;4866329;29;20036;-86
2020/12/14 08:53:53;;;;;;;18.40;15.60;;;10.20;99.90;;;;;;4881609;29;20028;-85
2020/12/14 08:56:21;;;;;;;18.73;15.68;;;10.20;99.90;;;;;;4881566;29;20463;-85
2020/12/14 08:58:58;;;;;;;15.77;14.05;;;10.30;99.90;;;;;;4897030;29;20032;-86
2020/12/14 09:01:28;;;;;;;20.40;14.25;;;10.30;99.90;;;;;;4881787;29;20033;-85
2020/12/14 09:03:54;;;;;;;15.68;13.77;;;10.30;99.90;;;;;;4899121;29;20036;-85
2020/12/14 09:06:33;;;;;;;12.73;11.45;;;10.30;99.90;;;;;;4881538;29;20088;-86
2020/12/14 09:09:04;;;;;;;16.35;13.30;;;10.30;99.90;;;;;;4866424;29;20173;-84
2020/12/14 09:11:31;;;;;;;14.48;11.98;;;10.40;99.90;;;;;;4881152;29;20037;-83
2020/12/14 09:14:02;;;;;;;14.02;11.57;;;10.30;99.90;;;;;;4881566;29;20467;-84
2020/12/14 09:16:28;;;;;;;13.63;11.52;;;10.40;99.90;;;;;;4881964;29;20032;-85
2020/12/14 09:18:54;;;;;;;16.58;12.90;;;10.40;99.90;;;;;;4881866;29;20039;-85
2020/12/14 09:21:20;;;;;;;13.95;11.35;;;10.40;99.90;;;;;;4884065;29;20040;-85
2020/12/14 09:24:15;;;;;;;16.05;11.45;;;10.40;99.90;;;;;;4881372;29;20084;-84
2020/12/14 09:26:41;;;;;;;14.48;12.98;;;10.50;99.90;;;;;;4919261;29;20118;-85
2020/12/14 09:29:08;;;;;;;13.65;11.15;;;10.50;99.90;;;;;;4916570;29;20040;-85
2020/12/14 09:31:34;;;;;;;14.13;12.25;;;10.50;99.90;;;;;;4919408;29;20028;-85
2020/12/14 09:34:00;;;;;;;11.15;10.05;;;10.50;99.90;;;;;;4921574;29;20091;-87
2020/12/14 09:36:26;;;;;;;11.85;10.55;;;10.50;99.90;;;;;;4889593;29;20398;-84
2020/12/14 09:38:54;;;;;;;11.30;10.13;;;10.50;99.90;;;;;;4903942;29;20034;-85
2020/12/14 09:41:21;;;;;;;14.20;11.20;;;10.40;99.90;;;;;;4888872;29;20131;-86
2020/12/14 09:43:47;;;;;;;12.70;10.10;;;10.50;99.90;;;;;;4923390;29;20059;-83
2020/12/14 09:46:13;;;;;;;15.45;10.38;;;10.40;99.90;;;;;;4901565;29;20037;-86
2020/12/14 09:48:40;;;;;;;11.35;8.80;;;10.40;99.90;;;;;;4884407;29;20069;-83
2020/12/14 09:51:06;;;;;;;15.32;9.30;;;10.50;99.90;;;;;;4882612;29;20064;-85
2020/12/14 09:53:33;;;;;;;13.30;8.10;;;10.50;99.90;;;;;;4881981;29;20123;-84
2020/12/14 09:56:00;;;;;;;10.63;7.78;;;10.60;99.90;;;;;;4866440;29;20032;-85
2020/12/14 09:58:25;;;;;;;9.82;7.60;;;10.70;99.90;;;;;;4882472;29;20044;-85
2020/12/14 10:00:51;;;;;;;8.95;6.97;;;10.80;99.90;;;;;;4881961;29;20459;-84
2020/12/14 10:03:17;;;;;;;9.82;7.30;;;10.80;99.90;;;;;;4882609;29;20104;-85
2020/12/14 10:05:47;;;;;;;9.05;6.97;;;10.80;99.90;;;;;;4881902;29;20039;-84
2020/12/14 10:08:14;;;;;;;8.85;6.47;;;10.90;99.90;;;;;;4883426;29;20031;-88
2020/12/14 10:10:41;;;;;;;10.20;6.95;;;10.90;99.90;;;;;;4934601;29;20046;-86
2020/12/14 10:13:07;;;;;;;9.55;7.05;;;10.90;99.90;;;;;;4885135;29;20037;-85
2020/12/14 10:15:33;;;;;;;14.18;7.80;;;10.90;99.90;;;;;;4872182;29;20426;-85
2020/12/14 10:17:59;;;;;;;9.40;6.43;;;10.90;99.90;;;;;;4938855;29;20070;-87
2020/12/14 10:20:24;;;;;;;10.55;6.95;;;10.90;99.90;;;;;;4891447;29;20108;-87
2020/12/14 10:22:50;;;;;;;9.43;6.95;;;11.00;99.90;;;;;;4892267;29;20446;-85
2020/12/14 10:25:19;;;;;;;8.02;6.55;;;11.00;99.90;;;;;;4891039;29;20031;-88
2020/12/14 10:27:44;;;;;;;9.07;7.22;;;11.00;99.90;;;;;;4922468;29;20031;-84
2020/12/14 10:30:10;;;;;;;8.70;7.72;;;11.00;99.90;;;;;;4890979;29;20035;-84
2020/12/14 10:32:36;;;;;;;12.30;7.20;;;11.10;99.90;;;;;;4890246;29;20103;-86
2020/12/14 10:35:01;;;;;;;7.78;6.40;;;11.10;99.90;;;;;;4905569;29;20460;-85
2020/12/14 10:37:27;;;;;;;10.00;6.57;;;11.10;99.90;;;;;;4921435;29;20067;-86
2020/12/14 10:39:53;;;;;;;12.05;6.55;;;11.10;99.90;;;;;;4939240;29;20042;-85
2020/12/14 10:42:18;;;;;;;9.05;6.68;;;11.10;99.90;;;;;;4906081;29;20040;-84
2020/12/14 10:44:44;;;;;;;12.25;5.70;;;11.10;99.90;;;;;;4938574;29;20032;-85
2020/12/14 10:47:10;;;;;;;12.38;6.53;;;11.20;99.90;;;;;;4921944;29;20040;-85
2020/12/14 10:49:35;;;;;;;8.23;6.45;;;11.20;99.90;;;;;;4890852;29;20120;-86
2020/12/14 10:52:02;;;;;;;7.35;6.03;;;11.20;99.90;;;;;;4922428;29;20417;-85
2020/12/14 10:54:28;;;;;;;8.95;6.45;;;11.20;99.90;;;;;;4906504;29;20035;-85
2020/12/14 10:56:54;;;;;;;7.80;6.07;;;11.20;99.90;;;;;;4890960;29;20035;-85
2020/12/14 10:59:19;;;;;;;7.93;5.55;;;11.20;99.90;;;;;;4921832;29;20028;-84
2020/12/14 11:01:50;;;;;;;10.20;5.82;;;11.30;99.90;;;;;;4921622;29;20032;-85
2020/12/14 11:04:16;;;;;;;9.73;5.60;;;11.40;99.90;;;;;;4905929;29;20035;-85
2020/12/14 11:06:41;;;;;;;11.13;6.10;;;11.40;99.90;;;;;;4938888;29;20111;-85
2020/12/14 11:09:07;;;;;;;10.45;5.32;;;11.40;99.90;;;;;;4922048;29;20497;-85
2020/12/14 11:11:35;;;;;;;9.25;5.22;;;11.40;99.90;;;;;;4906369;29;20040;-84
2020/12/14 11:14:01;;;;;;;6.95;5.38;;;11.50;99.90;;;;;;4907043;29;20046;-85
2020/12/14 11:16:27;;;;;;;8.48;4.95;;;11.50;99.90;;;;;;4921750;29;20031;-85
2020/12/14 11:18:54;;;;;;;8.95;5.15;;;11.50;99.90;;;;;;4906048;29;20470;-84
2020/12/14 11:21:21;;;;;;;11.98;5.40;;;11.50;99.90;;;;;;4904989;29;20130;-86
2020/12/14 11:23:47;;;;;;;8.75;5.53;;;11.50;99.90;;;;;;4921557;29;20490;-85
2020/12/14 11:26:12;;;;;;;10.02;5.57;;;11.50;99.90;;;;;;4921517;29;20039;-85
2020/12/14 11:28:39;;;;;;;7.18;4.80;;;11.50;99.90;;;;;;4938261;29;20064;-84
2020/12/14 11:31:06;;;;;;;8.63;5.32;;;11.50;99.90;;;;;;4922511;29;20120;-85
2020/12/14 11:33:32;;;;;;;8.63;5.00;;;11.50;99.90;;;;;;4921182;29;20103;-85
2020/12/14 11:35:57;;;;;;;10.13;5.65;;;11.50;99.90;;;;;;4905820;29;20031;-85
2020/12/14 11:38:23;;;;;;;8.57;5.28;;;11.50;99.90;;;;;;4921437;29;20394;-86
2020/12/14 11:40:49;;;;;;;9.45;4.60;;;11.60;99.90;;;;;;4920291;29;20127;-84
2020/12/14 11:43:15;;;;;;;10.73;4.82;;;11.60;99.90;;;;;;4937885;29;20044;-85
2020/12/14 11:45:40;;;;;;;11.43;4.70;;;11.70;99.90;;;;;;4938023;29;20039;-83
2020/12/14 11:48:06;;;;;;;7.07;3.90;;;11.80;99.90;;;;;;4904801;29;20087;-84
2020/12/14 11:50:32;;;;;;;6.00;4.00;;;12.00;99.90;;;;;;4904238;29;20031;-85
2020/12/14 11:52:58;;;;;;;8.02;3.85;;;12.30;99.90;;;;;;4920413;29;20371;-84
2020/12/14 11:55:23;;;;;;;10.10;4.18;;;12.30;99.90;;;;;;4904329;29;20032;-85
2020/12/14 11:57:49;;;;;;;7.18;3.92;;;12.40;99.90;;;;;;4920689;29;20386;-86
2020/12/14 12:00:15;;;;;;;9.27;4.13;;;12.50;99.90;;;;;;4907120;29;20066;-84
2020/12/14 12:02:40;;;;;;;11.35;3.92;;;12.40;99.90;;;;;;4905674;29;20040;-85
2020/12/14 12:05:06;;;;;;;11.55;4.28;;;12.30;99.90;;;;;;4905907;29;20034;-85
2020/12/14 12:07:32;;;;;;;9.30;4.00;;;12.20;99.90;;;;;;4904958;29;20031;-85
2020/12/14 12:09:58;;;;;;;10.13;4.10;;;12.10;99.90;;;;;;4907451;29;20036;-85
2020/12/14 12:12:23;;;;;;;8.18;4.10;;;12.00;99.90;;;;;;4920656;29;20070;-85
2020/12/14 12:14:49;;;;;;;10.88;5.03;;;12.00;99.90;;;;;;4920239;29;20039;-85
2020/12/14 12:17:15;;;;;;;12.98;4.55;;;11.90;99.90;;;;;;4904976;29;20031;-88
2020/12/14 12:19:40;;;;;;;8.60;4.32;;;11.90;99.90;;;;;;4927507;29;20035;-84
2020/12/14 12:22:06;;;;;;;11.75;5.43;;;11.90;99.90;;;;;;4925955;29;20105;-83
2020/12/14 12:24:32;;;;;;;9.27;4.10;;;11.80;99.90;;;;;;4906077;29;20482;-86
2020/12/14 12:26:57;;;;;;;8.00;4.25;;;11.80;99.90;;;;;;4905210;29;20035;-83
2020/12/14 12:29:23;;;;;;;10.77;4.85;;;11.80;99.90;;;;;;4888628;29;20035;-84
2020/12/14 12:31:51;;;;;;;9.27;5.00;;;11.80;99.90;;;;;;4935749;29;20474;-83
2020/12/14 12:34:17;;;;;;;8.30;4.57;;;11.80;99.90;;;;;;4904013;29;20056;-84
2020/12/14 12:36:49;;;;;;;8.00;5.03;;;11.70;99.90;;;;;;4919804;29;20028;-83
2020/12/14 12:39:14;;;;;;;9.48;4.70;;;11.70;99.90;;;;;;4904041;29;20094;-84
2020/12/14 12:41:47;;;;;;;11.60;5.57;;;11.70;99.90;;;;;;4888103;29;20039;-84
2020/12/14 12:44:13;;;;;;;12.55;5.80;;;11.60;99.90;;;;;;4936763;29;20123;-82